Terminal Aerodrome Forecast
Issued by NWS Topeka, KS

Home | Current Version | Previous Version | Graphics & Text | Print | Product List | Glossary On
Versions: 1 2 3 4 5 6 7 8 9 10 11 12 13 14 15 16 17
000
FTUS43 KTOP 021131
TAFTOP
TAF
KTOP 021131Z 0212/0312 19009KT P6SM -SHRA VCTS BKN090CB
     FM021700 18012G20KT P6SM SCT100
     FM030000 16006KT P6SM FEW150=

USA.gov is the U.S. government's official web portal to all federal, state and local government web resources and services.